OICI  Ilam  Airport

Ilam, Iran

Add Bookmark
ICAO OICI
IATA IIL
Type Airport
Status Operational
Latitude
33° 35' 11" N
33.586601
Longitude
46° 24' 17" E
46.404800
Local (DST + 5) UTC (GMT + 4)
May 23, 2015 08:53 May 23, 2015 16:23
Sunrise-Sunset Local UTC
Begin Civil Twilight 05:49 01:19
Sunrise 06:17 01:47
Sunset 08:24 15:54
End Civil Twilight 08:52 16:22
VFR
VFR
MVFR
MVFR
IFR
VFR
LIFR
VFR
Unknown
Unavailable

Current Weather

METAR Observed MVFR
OICI 231600Z 24006KT 6000 NSC 24/01 Q1015 A2999 Sat, May 23, 2015 @ 16:00 UTC
(23 Minutes ago)
Marginal Visual Flight Rules
Wind Visibility Conditions
240° at 6 knots (11 kph) 6,003 m
  • No significant weather
Temperatures Readings Precipitation
Current Temp
24°C
75°F
Dewpoint
1°C
34°F
Humidity 22%
Altimeter 29.97" Hg
Sea Level Pressure 1,015 mb
Field Elevation
1,343 m
4,406 ft
None Recorded
-
-

CheckWX.com is intended as a tool to help pilots better visualize weather data. It is not intended as a substitute for an official weather briefing obtained from a Flight Service Station. CheckWX.com does not meet the FAA requirements for an official pre-flight weather briefing. Therefore, it's important that pilots still call and obtain an official FSS pre-flight weather briefing.

© 2007-2015 CheckWX.com
16:23:09 UTC